sensor_id;sensor_type;location;lat;lon;timestamp;pressure;altitude;pressure_sealevel;temperature;humidity
42385;BME280;28042;43.986;22.860;2023-12-20T00:01:17;101531.38;;;0.32;100.00
42385;BME280;28042;43.986;22.860;2023-12-20T00:03:42;101525.13;;;0.31;100.00
42385;BME280;28042;43.986;22.860;2023-12-20T00:06:08;101530.38;;;0.33;100.00
42385;BME280;28042;43.986;22.860;2023-12-20T00:08:33;101525.88;;;0.33;100.00
42385;BME280;28042;43.986;22.860;2023-12-20T00:10:58;101522.22;;;0.34;100.00
42385;BME280;28042;43.986;22.860;2023-12-20T00:13:24;101519.09;;;0.40;100.00
42385;BME280;28042;43.986;22.860;2023-12-20T00:15:49;101521.47;;;0.45;100.00
42385;BME280;28042;43.986;22.860;2023-12-20T00:18:14;101521.66;;;0.42;100.00
42385;BME280;28042;43.986;22.860;2023-12-20T00:20:40;101523.38;;;0.43;100.00
42385;BME280;28042;43.986;22.860;2023-12-20T00:23:05;101517.50;;;0.38;100.00
42385;BME280;28042;43.986;22.860;2023-12-20T00:25:30;101513.13;;;0.37;100.00
42385;BME280;28042;43.986;22.860;2023-12-20T00:27:56;101516.84;;;0.34;100.00
42385;BME280;28042;43.986;22.860;2023-12-20T00:30:21;101497.69;;;0.27;100.00
42385;BME280;28042;43.986;22.860;2023-12-20T00:32:46;101508.19;;;0.31;100.00
42385;BME280;28042;43.986;22.860;2023-12-20T00:35:12;101498.44;;;0.30;100.00
42385;BME280;28042;43.986;22.860;2023-12-20T00:37:38;101500.38;;;0.27;100.00
42385;BME280;28042;43.986;22.860;2023-12-20T00:40:03;101498.00;;;0.23;100.00
42385;BME280;28042;43.986;22.860;2023-12-20T00:42:29;101497.69;;;0.27;100.00
42385;BME280;28042;43.986;22.860;2023-12-20T00:44:54;101496.38;;;0.33;100.00
42385;BME280;28042;43.986;22.860;2023-12-20T00:47:19;101503.06;;;0.27;100.00
42385;BME280;28042;43.986;22.860;2023-12-20T00:49:44;101496.91;;;0.25;100.00
42385;BME280;28042;43.986;22.860;2023-12-20T00:52:10;101488.25;;;0.22;100.00
42385;BME280;28042;43.986;22.860;2023-12-20T00:54:35;101494.22;;;0.25;100.00
42385;BME280;28042;43.986;22.860;2023-12-20T00:57:01;101495.75;;;0.17;100.00
42385;BME280;28042;43.986;22.860;2023-12-20T00:59:26;101487.72;;;0.17;100.00
42385;BME280;28042;43.986;22.860;2023-12-20T01:01:51;101488.06;;;0.12;100.00
42385;BME280;28042;43.986;22.860;2023-12-20T01:04:16;101490.00;;;0.10;100.00
42385;BME280;28042;43.986;22.860;2023-12-20T01:06:42;101487.41;;;0.09;100.00
42385;BME280;28042;43.986;22.860;2023-12-20T01:09:07;101472.63;;;0.03;100.00
42385;BME280;28042;43.986;22.860;2023-12-20T01:11:32;101480.16;;;-0.02;100.00
42385;BME280;28042;43.986;22.860;2023-12-20T01:13:57;101461.06;;;-0.10;100.00
42385;BME280;28042;43.986;22.860;2023-12-20T01:16:23;101457.41;;;-0.09;100.00
42385;BME280;28042;43.986;22.860;2023-12-20T01:18:48;101454.22;;;-0.14;100.00
42385;BME280;28042;43.986;22.860;2023-12-20T01:21:14;101462.28;;;-0.14;100.00
42385;BME280;28042;43.986;22.860;2023-12-20T01:23:39;101462.59;;;-0.19;100.00
42385;BME280;28042;43.986;22.860;2023-12-20T01:26:04;101458.31;;;-0.21;100.00
42385;BME280;28042;43.986;22.860;2023-12-20T01:28:30;101463.03;;;-0.25;100.00
42385;BME280;28042;43.986;22.860;2023-12-20T01:30:55;101457.03;;;-0.29;100.00
42385;BME280;28042;43.986;22.860;2023-12-20T01:33:21;101458.75;;;-0.28;100.00
42385;BME280;28042;43.986;22.860;2023-12-20T01:35:46;101453.06;;;-0.36;100.00
42385;BME280;28042;43.986;22.860;2023-12-20T01:38:12;101450.63;;;-0.39;100.00
42385;BME280;28042;43.986;22.860;2023-12-20T01:40:37;101441.84;;;-0.41;100.00
42385;BME280;28042;43.986;22.860;2023-12-20T01:43:06;101441.59;;;-0.38;100.00
42385;BME280;28042;43.986;22.860;2023-12-20T01:45:31;101436.25;;;-0.38;100.00
42385;BME280;28042;43.986;22.860;2023-12-20T01:47:57;101421.13;;;-0.39;100.00
42385;BME280;28042;43.986;22.860;2023-12-20T01:50:23;101429.16;;;-0.39;100.00
42385;BME280;28042;43.986;22.860;2023-12-20T01:52:49;101425.75;;;-0.41;100.00
42385;BME280;28042;43.986;22.860;2023-12-20T01:55:17;101418.03;;;-0.45;100.00
42385;BME280;28042;43.986;22.860;2023-12-20T01:57:43;101410.97;;;-0.46;100.00
42385;BME280;28042;43.986;22.860;2023-12-20T02:00:09;101406.69;;;-0.49;100.00
42385;BME280;28042;43.986;22.860;2023-12-20T02:02:35;101403.25;;;-0.51;100.00
42385;BME280;28042;43.986;22.860;2023-12-20T02:05:01;101395.72;;;-0.46;100.00
42385;BME280;28042;43.986;22.860;2023-12-20T02:07:27;101390.84;;;-0.52;100.00
42385;BME280;28042;43.986;22.860;2023-12-20T02:09:53;101403.16;;;-0.49;100.00
42385;BME280;28042;43.986;22.860;2023-12-20T02:12:18;101397.91;;;-0.51;100.00
42385;BME280;28042;43.986;22.860;2023-12-20T02:14:44;101389.31;;;-0.56;100.00
42385;BME280;28042;43.986;22.860;2023-12-20T02:17:09;101384.03;;;-0.45;100.00
42385;BME280;28042;43.986;22.860;2023-12-20T02:19:34;101381.38;;;-0.45;100.00
42385;BME280;28042;43.986;22.860;2023-12-20T02:22:09;101379.16;;;-0.51;100.00
42385;BME280;28042;43.986;22.860;2023-12-20T02:24:35;101386.34;;;-0.64;100.00
42385;BME280;28042;43.986;22.860;2023-12-20T02:27:00;101379.25;;;-0.65;100.00
42385;BME280;28042;43.986;22.860;2023-12-20T02:29:25;101373.25;;;-0.56;100.00
42385;BME280;28042;43.986;22.860;2023-12-20T02:31:51;101377.94;;;-0.47;100.00
42385;BME280;28042;43.986;22.860;2023-12-20T02:34:16;101371.19;;;-0.40;100.00
42385;BME280;28042;43.986;22.860;2023-12-20T02:36:42;101370.66;;;-0.45;100.00
42385;BME280;28042;43.986;22.860;2023-12-20T02:39:07;101371.06;;;-0.38;100.00
42385;BME280;28042;43.986;22.860;2023-12-20T02:41:33;101362.47;;;-0.31;100.00
42385;BME280;28042;43.986;22.860;2023-12-20T02:43:58;101365.16;;;-0.31;100.00
42385;BME280;28042;43.986;22.860;2023-12-20T02:46:23;101364.63;;;-0.36;100.00
42385;BME280;28042;43.986;22.860;2023-12-20T02:48:49;101372.03;;;-0.39;100.00
42385;BME280;28042;43.986;22.860;2023-12-20T02:51:14;101352.66;;;-0.43;100.00
42385;BME280;28042;43.986;22.860;2023-12-20T02:53:39;101352.66;;;-0.43;100.00
42385;BME280;28042;43.986;22.860;2023-12-20T02:56:05;101351.13;;;-0.34;100.00
42385;BME280;28042;43.986;22.860;2023-12-20T02:58:30;101351.63;;;-0.29;100.00
42385;BME280;28042;43.986;22.860;2023-12-20T03:00:55;101352.19;;;-0.37;100.00
42385;BME280;28042;43.986;22.860;2023-12-20T03:03:21;101339.75;;;-0.38;100.00
42385;BME280;28042;43.986;22.860;2023-12-20T03:05:46;101336.22;;;-0.38;100.00
42385;BME280;28042;43.986;22.860;2023-12-20T03:08:11;101337.81;;;-0.36;100.00
42385;BME280;28042;43.986;22.860;2023-12-20T03:10:37;101332.56;;;-0.24;100.00
42385;BME280;28042;43.986;22.860;2023-12-20T03:13:02;101329.19;;;-0.15;100.00
42385;BME280;28042;43.986;22.860;2023-12-20T03:15:27;101331.91;;;-0.04;100.00
42385;BME280;28042;43.986;22.860;2023-12-20T03:17:53;101330.75;;;0.00;100.00
42385;BME280;28042;43.986;22.860;2023-12-20T03:20:18;101332.94;;;0.06;100.00
42385;BME280;28042;43.986;22.860;2023-12-20T03:22:43;101330.25;;;0.06;100.00
42385;BME280;28042;43.986;22.860;2023-12-20T03:25:08;101329.53;;;0.04;100.00
42385;BME280;28042;43.986;22.860;2023-12-20T03:27:34;101336.59;;;0.05;100.00
42385;BME280;28042;43.986;22.860;2023-12-20T03:30:01;101335.75;;;0.05;100.00
42385;BME280;28042;43.986;22.860;2023-12-20T03:32:27;101319.03;;;0.01;100.00
42385;BME280;28042;43.986;22.860;2023-12-20T03:34:52;101320.97;;;-0.01;100.00
42385;BME280;28042;43.986;22.860;2023-12-20T03:37:17;101313.16;;;-0.04;100.00
42385;BME280;28042;43.986;22.860;2023-12-20T03:39:42;101312.63;;;-0.09;100.00
42385;BME280;28042;43.986;22.860;2023-12-20T03:42:08;101301.66;;;-0.17;100.00
42385;BME280;28042;43.986;22.860;2023-12-20T03:44:33;101305.06;;;-0.15;100.00
42385;BME280;28042;43.986;22.860;2023-12-20T03:46:58;101298.97;;;-0.17;100.00
42385;BME280;28042;43.986;22.860;2023-12-20T03:49:24;101301.66;;;-0.17;100.00
42385;BME280;28042;43.986;22.860;2023-12-20T03:51:49;101287.31;;;-0.29;100.00
42385;BME280;28042;43.986;22.860;2023-12-20T03:54:14;101289.97;;;-0.29;100.00
42385;BME280;28042;43.986;22.860;2023-12-20T03:56:39;101285.94;;;-0.35;100.00
42385;BME280;28042;43.986;22.860;2023-12-20T03:59:05;101287.25;;;-0.40;100.00
42385;BME280;28042;43.986;22.860;2023-12-20T04:01:30;101293.22;;;-0.37;100.00
42385;BME280;28042;43.986;22.860;2023-12-20T04:03:55;101287.13;;;-0.39;100.00
42385;BME280;28042;43.986;22.860;2023-12-20T04:06:20;101286.41;;;-0.41;100.00
42385;BME280;28042;43.986;22.860;2023-12-20T04:08:46;101286.84;;;-0.47;100.00
42385;BME280;28042;43.986;22.860;2023-12-20T04:11:11;101281.72;;;-0.50;100.00
42385;BME280;28042;43.986;22.860;2023-12-20T04:13:36;101284.72;;;-0.54;100.00
42385;BME280;28042;43.986;22.860;2023-12-20T04:16:02;101289.09;;;-0.53;100.00
42385;BME280;28042;43.986;22.860;2023-12-20T04:18:27;101288.38;;;-0.55;100.00
42385;BME280;28042;43.986;22.860;2023-12-20T04:20:53;101298.47;;;-0.59;100.00
42385;BME280;28042;43.986;22.860;2023-12-20T04:23:18;101290.31;;;-0.58;100.00
42385;BME280;28042;43.986;22.860;2023-12-20T04:25:44;101285.81;;;-0.57;100.00
42385;BME280;28042;43.986;22.860;2023-12-20T04:28:09;101278.75;;;-0.58;100.00
42385;BME280;28042;43.986;22.860;2023-12-20T04:30:35;101287.94;;;-0.62;100.00
42385;BME280;28042;43.986;22.860;2023-12-20T04:33:00;101280.69;;;-0.60;100.00
42385;BME280;28042;43.986;22.860;2023-12-20T04:35:25;101285.19;;;-0.61;100.00
42385;BME280;28042;43.986;22.860;2023-12-20T04:37:51;101288.72;;;-0.60;100.00
42385;BME280;28042;43.986;22.860;2023-12-20T04:40:16;101276.25;;;-0.61;100.00
42385;BME280;28042;43.986;22.860;2023-12-20T04:42:41;101271.88;;;-0.62;100.00
42385;BME280;28042;43.986;22.860;2023-12-20T04:45:07;101271.88;;;-0.62;100.00
42385;BME280;28042;43.986;22.860;2023-12-20T04:47:32;101275.09;;;-0.57;100.00
42385;BME280;28042;43.986;22.860;2023-12-20T04:49:57;101276.78;;;-0.56;100.00
42385;BME280;28042;43.986;22.860;2023-12-20T04:52:23;101274.16;;;-0.69;100.00
42385;BME280;28042;43.986;22.860;2023-12-20T04:54:48;101272.53;;;-0.71;100.00
42385;BME280;28042;43.986;22.860;2023-12-20T04:57:13;101269.13;;;-0.73;100.00
42385;BME280;28042;43.986;22.860;2023-12-20T04:59:39;101276.50;;;-0.64;100.00
42385;BME280;28042;43.986;22.860;2023-12-20T05:02:04;101271.78;;;-0.61;100.00
42385;BME280;28042;43.986;22.860;2023-12-20T05:04:29;101279.59;;;-0.58;100.00
42385;BME280;28042;43.986;22.860;2023-12-20T05:06:55;101272.63;;;-0.60;100.00
42385;BME280;28042;43.986;22.860;2023-12-20T05:09:20;101280.88;;;-0.63;100.00
42385;BME280;28042;43.986;22.860;2023-12-20T05:11:45;101274.66;;;-0.64;100.00
42385;BME280;28042;43.986;22.860;2023-12-20T05:14:11;101277.47;;;-0.65;100.00
42385;BME280;28042;43.986;22.860;2023-12-20T05:16:36;101267.19;;;-0.71;100.00
42385;BME280;28042;43.986;22.860;2023-12-20T05:19:01;101256.72;;;-0.74;100.00
42385;BME280;28042;43.986;22.860;2023-12-20T05:21:31;101258.84;;;-0.79;100.00
42385;BME280;28042;43.986;22.860;2023-12-20T05:23:57;101260.91;;;-0.83;100.00
42385;BME280;28042;43.986;22.860;2023-12-20T05:26:22;101250.09;;;-0.81;100.00
42385;BME280;28042;43.986;22.860;2023-12-20T05:28:47;101249.47;;;-0.85;100.00
42385;BME280;28042;43.986;22.860;2023-12-20T05:31:12;101248.13;;;-0.79;100.00
42385;BME280;28042;43.986;22.860;2023-12-20T05:33:38;101239.66;;;-0.73;100.00
42385;BME280;28042;43.986;22.860;2023-12-20T05:36:03;101236.44;;;-0.66;100.00
42385;BME280;28042;43.986;22.860;2023-12-20T05:38:29;101235.88;;;-0.58;100.00
42385;BME280;28042;43.986;22.860;2023-12-20T05:40:54;101238.00;;;-0.50;100.00
42385;BME280;28042;43.986;22.860;2023-12-20T05:43:19;101239.56;;;-0.48;100.00
42385;BME280;28042;43.986;22.860;2023-12-20T05:45:45;101237.81;;;-0.60;100.00
42385;BME280;28042;43.986;22.860;2023-12-20T05:48:10;101227.31;;;-0.63;100.00
42385;BME280;28042;43.986;22.860;2023-12-20T05:50:35;101228.34;;;-0.53;100.00
42385;BME280;28042;43.986;22.860;2023-12-20T05:53:02;101225.94;;;-0.45;100.00
42385;BME280;28042;43.986;22.860;2023-12-20T05:55:27;101217.81;;;-0.43;100.00
42385;BME280;28042;43.986;22.860;2023-12-20T05:57:52;101220.00;;;-0.37;100.00
42385;BME280;28042;43.986;22.860;2023-12-20T06:00:18;101212.38;;;-0.31;100.00
42385;BME280;28042;43.986;22.860;2023-12-20T06:02:43;101215.34;;;-0.22;100.00
42385;BME280;28042;43.986;22.860;2023-12-20T06:05:09;101214.63;;;-0.13;100.00
42385;BME280;28042;43.986;22.860;2023-12-20T06:07:34;101219.28;;;-0.04;100.00
42385;BME280;28042;43.986;22.860;2023-12-20T06:09:59;101216.03;;;0.04;100.00
42385;BME280;28042;43.986;22.860;2023-12-20T06:12:25;101214.72;;;0.09;100.00
42385;BME280;28042;43.986;22.860;2023-12-20T06:14:51;101209.44;;;0.08;100.00
42385;BME280;28042;43.986;22.860;2023-12-20T06:17:17;101213.63;;;0.12;100.00
42385;BME280;28042;43.986;22.860;2023-12-20T06:19:42;101205.97;;;0.18;100.00
42385;BME280;28042;43.986;22.860;2023-12-20T06:22:10;101212.06;;;0.32;100.00
42385;BME280;28042;43.986;22.860;2023-12-20T06:24:35;101209.31;;;0.44;100.00
42385;BME280;28042;43.986;22.860;2023-12-20T06:27:01;101200.75;;;0.50;100.00
42385;BME280;28042;43.986;22.860;2023-12-20T06:29:26;101209.44;;;0.54;100.00
42385;BME280;28042;43.986;22.860;2023-12-20T06:31:51;101211.59;;;0.49;100.00
42385;BME280;28042;43.986;22.860;2023-12-20T06:34:17;101206.09;;;0.39;100.00
42385;BME280;28042;43.986;22.860;2023-12-20T06:36:42;101208.19;;;0.47;100.00
42385;BME280;28042;43.986;22.860;2023-12-20T06:39:07;101217.44;;;0.43;100.00
42385;BME280;28042;43.986;22.860;2023-12-20T06:41:33;101217.97;;;0.59;100.00
42385;BME280;28042;43.986;22.860;2023-12-20T06:43:59;101208.94;;;0.71;100.00
42385;BME280;28042;43.986;22.860;2023-12-20T06:46:24;101205.03;;;0.87;100.00
42385;BME280;28042;43.986;22.860;2023-12-20T06:48:50;101211.84;;;1.02;100.00
42385;BME280;28042;43.986;22.860;2023-12-20T06:51:16;101197.09;;;1.07;100.00
42385;BME280;28042;43.986;22.860;2023-12-20T06:53:42;101188.13;;;1.18;100.00
42385;BME280;28042;43.986;22.860;2023-12-20T06:56:07;101193.25;;;1.21;100.00
42385;BME280;28042;43.986;22.860;2023-12-20T06:58:32;101188.25;;;1.28;100.00
42385;BME280;28042;43.986;22.860;2023-12-20T07:00:58;101187.88;;;1.32;100.00
42385;BME280;28042;43.986;22.860;2023-12-20T07:03:24;101185.19;;;1.32;100.00
42385;BME280;28042;43.986;22.860;2023-12-20T07:05:49;101172.69;;;1.42;100.00
42385;BME280;28042;43.986;22.860;2023-12-20T07:08:15;101170.66;;;1.56;100.00
42385;BME280;28042;43.986;22.860;2023-12-20T07:10:40;101173.56;;;1.64;100.00
42385;BME280;28042;43.986;22.860;2023-12-20T07:13:06;101173.66;;;1.74;100.00
42385;BME280;28042;43.986;22.860;2023-12-20T07:15:32;101161.25;;;1.82;100.00
42385;BME280;28042;43.986;22.860;2023-12-20T07:17:58;101166.59;;;1.93;100.00
42385;BME280;28042;43.986;22.860;2023-12-20T07:23:28;101151.25;;;2.05;100.00
42385;BME280;28042;43.986;22.860;2023-12-20T07:25:53;101143.94;;;2.17;100.00
42385;BME280;28042;43.986;22.860;2023-12-20T07:28:19;101145.50;;;2.40;100.00
42385;BME280;28042;43.986;22.860;2023-12-20T07:30:44;101147.16;;;2.62;100.00
42385;BME280;28042;43.986;22.860;2023-12-20T07:33:09;101137.44;;;2.80;100.00
42385;BME280;28042;43.986;22.860;2023-12-20T07:35:35;101140.34;;;2.98;100.00
42385;BME280;28042;43.986;22.860;2023-12-20T07:38:00;101145.88;;;3.06;100.00
42385;BME280;28042;43.986;22.860;2023-12-20T07:40:26;101146.06;;;3.24;100.00
42385;BME280;28042;43.986;22.860;2023-12-20T07:42:51;101146.06;;;3.34;100.00
42385;BME280;28042;43.986;22.860;2023-12-20T07:45:16;101140.13;;;3.40;100.00
42385;BME280;28042;43.986;22.860;2023-12-20T07:47:41;101134.44;;;3.43;100.00
42385;BME280;28042;43.986;22.860;2023-12-20T07:50:07;101134.16;;;3.46;100.00
42385;BME280;28042;43.986;22.860;2023-12-20T07:52:32;101140.38;;;3.37;100.00
42385;BME280;28042;43.986;22.860;2023-12-20T07:54:57;101125.66;;;3.41;100.00
42385;BME280;28042;43.986;22.860;2023-12-20T07:57:23;101133.03;;;3.39;100.00
42385;BME280;28042;43.986;22.860;2023-12-20T07:59:48;101133.03;;;3.49;100.00
42385;BME280;28042;43.986;22.860;2023-12-20T08:02:14;101132.19;;;3.67;100.00
42385;BME280;28042;43.986;22.860;2023-12-20T08:04:39;101128.03;;;3.63;100.00
42385;BME280;28042;43.986;22.860;2023-12-20T08:07:05;101127.91;;;3.75;100.00
42385;BME280;28042;43.986;22.860;2023-12-20T08:09:31;101119.38;;;3.79;100.00
42385;BME280;28042;43.986;22.860;2023-12-20T08:11:57;101120.78;;;3.93;100.00
42385;BME280;28042;43.986;22.860;2023-12-20T08:14:24;101111.78;;;4.21;100.00
42385;BME280;28042;43.986;22.860;2023-12-20T08:16:49;101112.13;;;4.46;100.00
42385;BME280;28042;43.986;22.860;2023-12-20T08:19:15;101097.81;;;4.63;100.00
42385;BME280;28042;43.986;22.860;2023-12-20T08:21:40;101096.72;;;4.56;100.00
42385;BME280;28042;43.986;22.860;2023-12-20T08:24:05;101087.41;;;4.68;100.00
42385;BME280;28042;43.986;22.860;2023-12-20T08:26:31;101085.00;;;4.93;100.00
42385;BME280;28042;43.986;22.860;2023-12-20T08:28:56;101068.69;;;5.02;100.00
42385;BME280;28042;43.986;22.860;2023-12-20T08:31:21;101068.25;;;5.07;100.00
42385;BME280;28042;43.986;22.860;2023-12-20T08:33:47;101066.56;;;5.06;100.00
42385;BME280;28042;43.986;22.860;2023-12-20T08:36:13;101075.38;;;5.08;100.00
42385;BME280;28042;43.986;22.860;2023-12-20T08:38:38;101062.53;;;5.10;100.00
42385;BME280;28042;43.986;22.860;2023-12-20T08:41:04;101062.00;;;5.06;100.00
42385;BME280;28042;43.986;22.860;2023-12-20T08:43:34;101060.59;;;5.02;100.00
42385;BME280;28042;43.986;22.860;2023-12-20T08:45:59;101056.09;;;4.93;100.00
42385;BME280;28042;43.986;22.860;2023-12-20T08:48:24;101051.31;;;4.87;100.00
42385;BME280;28042;43.986;22.860;2023-12-20T08:50:50;101047.38;;;4.81;100.00
42385;BME280;28042;43.986;22.860;2023-12-20T08:53:17;101048.28;;;4.72;100.00
42385;BME280;28042;43.986;22.860;2023-12-20T08:55:43;101047.78;;;4.59;100.00
42385;BME280;28042;43.986;22.860;2023-12-20T08:58:08;101045.78;;;4.61;100.00
42385;BME280;28042;43.986;22.860;2023-12-20T09:00:34;101037.97;;;4.58;100.00
42385;BME280;28042;43.986;22.860;2023-12-20T09:02:59;101046.06;;;4.58;100.00
42385;BME280;28042;43.986;22.860;2023-12-20T09:05:25;101039.38;;;4.62;100.00
42385;BME280;28042;43.986;22.860;2023-12-20T09:07:50;101030.56;;;4.60;100.00
42385;BME280;28042;43.986;22.860;2023-12-20T09:10:15;101027.25;;;4.66;100.00
42385;BME280;28042;43.986;22.860;2023-12-20T09:12:40;101023.13;;;4.72;100.00
42385;BME280;28042;43.986;22.860;2023-12-20T09:15:07;101015.19;;;4.88;100.00
42385;BME280;28042;43.986;22.860;2023-12-20T09:17:33;101004.53;;;5.04;100.00
42385;BME280;28042;43.986;22.860;2023-12-20T09:19:58;101001.91;;;5.13;100.00
42385;BME280;28042;43.986;22.860;2023-12-20T09:22:25;100995.78;;;5.28;100.00
42385;BME280;28042;43.986;22.860;2023-12-20T09:24:50;100982.69;;;5.42;100.00
42385;BME280;28042;43.986;22.860;2023-12-20T09:27:15;100977.41;;;5.58;100.00
42385;BME280;28042;43.986;22.860;2023-12-20T09:29:41;100984.31;;;5.78;100.00
42385;BME280;28042;43.986;22.860;2023-12-20T09:32:06;100978.00;;;5.95;100.00
42385;BME280;28042;43.986;22.860;2023-12-20T09:34:31;100978.72;;;6.06;100.00
42385;BME280;28042;43.986;22.860;2023-12-20T09:36:56;100972.66;;;6.12;100.00
42385;BME280;28042;43.986;22.860;2023-12-20T09:39:22;100966.16;;;6.31;100.00
42385;BME280;28042;43.986;22.860;2023-12-20T09:44:19;100972.13;;;6.50;100.00
42385;BME280;28042;43.986;22.860;2023-12-20T09:46:45;100959.59;;;6.49;100.00
42385;BME280;28042;43.986;22.860;2023-12-20T09:49:13;100950.53;;;6.83;100.00
42385;BME280;28042;43.986;22.860;2023-12-20T09:51:39;100938.19;;;7.21;100.00
42385;BME280;28042;43.986;22.860;2023-12-20T09:54:05;100931.88;;;7.37;97.37
42385;BME280;28042;43.986;22.860;2023-12-20T09:56:30;100930.50;;;7.65;96.03
42385;BME280;28042;43.986;22.860;2023-12-20T09:58:56;100924.47;;;7.86;96.08
42385;BME280;28042;43.986;22.860;2023-12-20T10:01:21;100915.13;;;7.89;94.41
42385;BME280;28042;43.986;22.860;2023-12-20T10:03:47;100912.78;;;7.78;94.89
42385;BME280;28042;43.986;22.860;2023-12-20T10:06:12;100907.00;;;7.81;93.88
42385;BME280;28042;43.986;22.860;2023-12-20T10:08:38;100909.84;;;7.96;92.88
42385;BME280;28042;43.986;22.860;2023-12-20T10:11:04;100900.16;;;8.01;92.26
42385;BME280;28042;43.986;22.860;2023-12-20T10:13:29;100893.66;;;7.63;92.06
42385;BME280;28042;43.986;22.860;2023-12-20T10:15:55;100895.75;;;7.45;93.10
42385;BME280;28042;43.986;22.860;2023-12-20T10:18:20;100898.63;;;7.35;94.95
42385;BME280;28042;43.986;22.860;2023-12-20T10:20:46;100888.47;;;7.21;95.49
42385;BME280;28042;43.986;22.860;2023-12-20T10:23:12;100885.09;;;7.19;97.62
42385;BME280;28042;43.986;22.860;2023-12-20T10:25:39;100889.84;;;7.08;99.19
42385;BME280;28042;43.986;22.860;2023-12-20T10:28:11;100881.41;;;6.95;100.00
42385;BME280;28042;43.986;22.860;2023-12-20T10:30:37;100874.97;;;6.88;99.95
42385;BME280;28042;43.986;22.860;2023-12-20T10:33:02;100877.31;;;6.83;100.00
42385;BME280;28042;43.986;22.860;2023-12-20T10:35:27;100868.16;;;6.76;99.71
42385;BME280;28042;43.986;22.860;2023-12-20T10:37:55;100859.66;;;7.20;98.70
42385;BME280;28042;43.986;22.860;2023-12-20T10:40:24;100848.03;;;7.67;97.52
42385;BME280;28042;43.986;22.860;2023-12-20T10:42:50;100853.91;;;7.78;95.45
42385;BME280;28042;43.986;22.860;2023-12-20T10:45:16;100849.50;;;7.77;94.02
42385;BME280;28042;43.986;22.860;2023-12-20T10:47:44;100844.88;;;7.86;93.43
42385;BME280;28042;43.986;22.860;2023-12-20T10:50:11;100842.53;;;7.83;94.21
42385;BME280;28042;43.986;22.860;2023-12-20T10:52:36;100847.59;;;7.86;95.24
42385;BME280;28042;43.986;22.860;2023-12-20T10:55:03;100826.66;;;7.94;94.47
42385;BME280;28042;43.986;22.860;2023-12-20T10:57:28;100812.28;;;7.86;95.22
42385;BME280;28042;43.986;22.860;2023-12-20T10:59:54;100816.16;;;7.91;94.48
42385;BME280;28042;43.986;22.860;2023-12-20T11:02:21;100818.00;;;7.60;93.96
42385;BME280;28042;43.986;22.860;2023-12-20T11:04:49;100815.63;;;7.65;95.47
42385;BME280;28042;43.986;22.860;2023-12-20T11:07:51;100812.34;;;7.70;95.02
42385;BME280;28042;43.986;22.860;2023-12-20T11:12:41;100807.63;;;7.63;96.07
42385;BME280;28042;43.986;22.860;2023-12-20T11:15:09;100797.47;;;7.65;97.54
42385;BME280;28042;43.986;22.860;2023-12-20T11:17:35;100809.69;;;7.61;98.52
42385;BME280;28042;43.986;22.860;2023-12-20T11:22:35;100792.53;;;7.61;98.16
42385;BME280;28042;43.986;22.860;2023-12-20T11:25:07;100791.34;;;7.63;98.22
42385;BME280;28042;43.986;22.860;2023-12-20T11:27:36;100778.53;;;7.80;97.84
42385;BME280;28042;43.986;22.860;2023-12-20T11:30:05;100792.72;;;7.90;97.93
42385;BME280;28042;43.986;22.860;2023-12-20T11:32:35;100788.88;;;8.08;97.98
42385;BME280;28042;43.986;22.860;2023-12-20T11:35:16;100777.66;;;8.34;97.08
42385;BME280;28042;43.986;22.860;2023-12-20T11:37:41;100766.16;;;8.55;95.15
42385;BME280;28042;43.986;22.860;2023-12-20T11:40:08;100757.81;;;8.56;93.61
42385;BME280;28042;43.986;22.860;2023-12-20T11:42:39;100760.53;;;8.56;92.39
42385;BME280;28042;43.986;22.860;2023-12-20T11:45:05;100745.91;;;8.57;91.58
42385;BME280;28042;43.986;22.860;2023-12-20T11:47:33;100745.19;;;8.63;90.90
42385;BME280;28042;43.986;22.860;2023-12-20T11:49:58;100736.78;;;8.73;90.73
42385;BME280;28042;43.986;22.860;2023-12-20T11:52:25;100731.72;;;8.85;90.24
42385;BME280;28042;43.986;22.860;2023-12-20T11:54:51;100734.06;;;8.88;89.64
42385;BME280;28042;43.986;22.860;2023-12-20T11:57:16;100740.97;;;8.75;89.89
42385;BME280;28042;43.986;22.860;2023-12-20T11:59:42;100734.16;;;8.80;89.76
42385;BME280;28042;43.986;22.860;2023-12-20T12:02:07;100732.31;;;8.57;90.65
42385;BME280;28042;43.986;22.860;2023-12-20T12:04:33;100728.28;;;8.53;91.07
42385;BME280;28042;43.986;22.860;2023-12-20T12:06:59;100713.38;;;8.49;91.01
42385;BME280;28042;43.986;22.860;2023-12-20T12:09:24;100710.66;;;8.49;91.81
42385;BME280;28042;43.986;22.860;2023-12-20T12:11:50;100697.06;;;8.49;92.13
42385;BME280;28042;43.986;22.860;2023-12-20T12:14:15;100703.91;;;8.45;92.66
42385;BME280;28042;43.986;22.860;2023-12-20T12:16:43;100707.66;;;8.44;93.75
42385;BME280;28042;43.986;22.860;2023-12-20T12:19:19;100705.00;;;8.36;94.45
42385;BME280;28042;43.986;22.860;2023-12-20T12:21:45;100722.38;;;8.27;96.52
42385;BME280;28042;43.986;22.860;2023-12-20T12:24:10;100710.41;;;7.90;98.13
42385;BME280;28042;43.986;22.860;2023-12-20T12:26:35;100700.00;;;7.71;99.85
42385;BME280;28042;43.986;22.860;2023-12-20T12:29:00;100698.47;;;7.76;100.00
42385;BME280;28042;43.986;22.860;2023-12-20T12:31:26;100693.63;;;7.86;100.00
42385;BME280;28042;43.986;22.860;2023-12-20T12:33:51;100688.56;;;7.83;99.88
42385;BME280;28042;43.986;22.860;2023-12-20T12:36:17;100676.38;;;7.79;99.20
42385;BME280;28042;43.986;22.860;2023-12-20T12:38:42;100679.94;;;7.80;96.26
42385;BME280;28042;43.986;22.860;2023-12-20T12:41:08;100676.94;;;7.75;94.48